Time;durP1;ratioP1;P1;durP2;ratioP2;P2;SDS_P1;SDS_P2;PMS_P1;PMS_P2;Temp;Humidity;BMP_temperature;BMP_pressure;BME280_temperature;BME280_humidity;BME280_pressure;Samples;Min_cycle;Max_cycle;Signal;HPM_P1;HPM_P2
2023/09/04 00:00:29;;;;;;;0.00;0.00;;;17.70;99.90;;;;;;5052610;28;20234;-62
2023/09/04 00:02:55;;;;;;;0.00;0.00;;;17.70;99.90;;;;;;5052341;28;20678;-62
2023/09/04 00:05:20;;;;;;;0.00;0.00;;;17.70;99.90;;;;;;5052502;28;20212;-62
2023/09/04 00:07:46;;;;;;;0.00;0.00;;;17.70;99.90;;;;;;5052338;28;20268;-62
2023/09/04 00:10:12;;;;;;;0.08;0.08;;;17.70;99.90;;;;;;5052406;28;20643;-62
2023/09/04 00:12:38;;;;;;;0.00;0.00;;;17.70;99.90;;;;;;5052526;28;20181;-62
2023/09/04 00:15:04;;;;;;;0.00;0.00;;;17.60;99.90;;;;;;5052578;28;20335;-62
2023/09/04 00:17:30;;;;;;;0.00;0.00;;;17.60;99.90;;;;;;5052506;28;20189;-62
2023/09/04 00:19:56;;;;;;;0.00;0.00;;;17.50;99.90;;;;;;5052573;28;20173;-62
2023/09/04 00:22:22;;;;;;;0.00;0.00;;;17.50;99.90;;;;;;5051839;28;20181;-62
2023/09/04 00:24:47;;;;;;;0.00;0.00;;;17.50;99.90;;;;;;5052576;28;20264;-62
2023/09/04 00:27:13;;;;;;;0.00;0.00;;;17.40;99.90;;;;;;5052262;28;20825;-62
2023/09/04 00:29:38;;;;;;;0.10;0.10;;;17.40;99.90;;;;;;5051891;28;20178;-62
2023/09/04 00:32:05;;;;;;;0.00;0.00;;;17.40;99.90;;;;;;5051774;28;20221;-62
2023/09/04 00:34:32;;;;;;;0.00;0.00;;;17.30;99.90;;;;;;5052615;28;20268;-61
2023/09/04 00:36:57;;;;;;;0.00;0.00;;;17.30;99.90;;;;;;5052280;28;20279;-62
2023/09/04 00:39:23;;;;;;;0.00;0.00;;;17.30;99.90;;;;;;5052182;28;20240;-62
2023/09/04 00:41:49;;;;;;;0.00;0.00;;;17.30;99.90;;;;;;5051782;28;20181;-62
2023/09/04 00:44:14;;;;;;;0.00;0.00;;;17.30;99.90;;;;;;5051625;28;20192;-62
2023/09/04 00:46:41;;;;;;;0.22;0.10;;;17.20;99.90;;;;;;5052268;28;20201;-61
2023/09/04 00:49:08;;;;;;;0.00;0.00;;;17.20;99.90;;;;;;5051957;28;20181;-62
2023/09/04 00:51:33;;;;;;;0.00;0.00;;;17.10;99.90;;;;;;5052176;28;20226;-62
2023/09/04 00:53:59;;;;;;;0.00;0.00;;;17.10;99.90;;;;;;5051535;28;20182;-61
2023/09/04 00:56:25;;;;;;;0.00;0.00;;;17.00;99.90;;;;;;5051478;28;20220;-61
2023/09/04 00:58:50;;;;;;;0.00;0.00;;;17.00;99.90;;;;;;5051970;28;20257;-61
2023/09/04 01:01:16;;;;;;;0.13;0.13;;;17.00;99.90;;;;;;5051497;28;20212;-62
2023/09/04 01:03:42;;;;;;;0.00;0.00;;;16.90;99.90;;;;;;5051771;28;20192;-61
2023/09/04 01:06:07;;;;;;;0.00;0.00;;;16.90;99.90;;;;;;5051813;28;20177;-61
2023/09/04 01:08:33;;;;;;;0.00;0.00;;;16.80;99.90;;;;;;5051619;28;20182;-61
2023/09/04 01:11:30;;;;;;;0.10;0.10;;;16.80;99.90;;;;;;5051758;28;20178;-61
2023/09/04 01:13:57;;;;;;;0.00;0.00;;;16.80;99.90;;;;;;5051835;28;20188;-61
2023/09/04 01:16:23;;;;;;;0.00;0.00;;;16.80;99.90;;;;;;5051677;28;20286;-62
2023/09/04 01:18:50;;;;;;;0.00;0.00;;;16.80;99.90;;;;;;5051477;28;20591;-61
2023/09/04 01:21:16;;;;;;;0.00;0.00;;;16.80;99.90;;;;;;5051439;28;20181;-62
2023/09/04 01:23:42;;;;;;;0.00;0.00;;;16.80;99.90;;;;;;5051569;28;20751;-61
2023/09/04 01:26:25;;;;;;;0.00;0.00;;;16.80;99.90;;;;;;5051494;28;20213;-61
2023/09/04 01:29:21;;;;;;;0.03;0.03;;;16.80;99.90;;;;;;5051584;28;20181;-63
2023/09/04 01:32:10;;;;;;;0.00;0.00;;;16.80;99.90;;;;;;5051952;28;20217;-62
2023/09/04 01:34:42;;;;;;;0.00;0.00;;;16.80;99.90;;;;;;5051038;28;20181;-62
2023/09/04 01:37:08;;;;;;;0.00;0.00;;;16.80;99.90;;;;;;5051074;28;20234;-61
2023/09/04 01:39:34;;;;;;;0.00;0.00;;;16.80;99.90;;;;;;5050993;28;20181;-62
2023/09/04 01:42:00;;;;;;;0.03;0.03;;;16.80;99.90;;;;;;5050929;28;20182;-62
2023/09/04 01:44:25;;;;;;;0.00;0.00;;;16.70;99.90;;;;;;5050967;28;20661;-62
2023/09/04 01:46:51;;;;;;;0.00;0.00;;;16.70;99.90;;;;;;5050855;28;20174;-62
2023/09/04 01:49:17;;;;;;;0.00;0.00;;;16.70;99.90;;;;;;5050539;28;20239;-62
2023/09/04 01:51:42;;;;;;;0.00;0.00;;;16.60;99.90;;;;;;5050838;28;20239;-62
2023/09/04 01:54:08;;;;;;;0.08;0.08;;;16.60;99.90;;;;;;5050451;28;20197;-61
2023/09/04 01:56:33;;;;;;;0.17;0.17;;;16.60;99.90;;;;;;5050765;28;20228;-62
2023/09/04 01:58:59;;;;;;;0.00;0.00;;;16.50;99.90;;;;;;5050758;28;20221;-62
2023/09/04 02:01:24;;;;;;;0.00;0.00;;;16.50;99.90;;;;;;5050680;28;20212;-62
2023/09/04 02:03:54;;;;;;;0.08;0.08;;;16.50;99.90;;;;;;5050880;28;20609;-62
2023/09/04 02:06:20;;;;;;;0.10;0.10;;;16.40;99.90;;;;;;5050200;28;20193;-61
2023/09/04 02:08:47;;;;;;;0.00;0.00;;;16.40;99.90;;;;;;5050056;28;20277;-62
2023/09/04 02:11:12;;;;;;;0.00;0.00;;;16.40;99.90;;;;;;5049005;28;20213;-62
2023/09/04 02:13:37;;;;;;;0.00;0.00;;;16.40;99.90;;;;;;5050468;28;20212;-61
2023/09/04 02:16:03;;;;;;;0.00;0.00;;;16.40;99.90;;;;;;5050338;28;20684;-61
2023/09/04 02:18:29;;;;;;;0.00;0.00;;;16.30;99.90;;;;;;5050677;28;20774;-62
2023/09/04 02:20:54;;;;;;;0.20;0.20;;;16.30;99.90;;;;;;5049001;28;20528;-62
2023/09/04 02:23:20;;;;;;;0.00;0.00;;;16.20;99.90;;;;;;5050454;28;20280;-62
2023/09/04 02:25:48;;;;;;;0.00;0.00;;;16.20;99.90;;;;;;5050621;28;20216;-61
2023/09/04 02:28:16;;;;;;;0.00;0.00;;;16.10;99.90;;;;;;5050424;28;20181;-62
2023/09/04 02:30:41;;;;;;;0.00;0.00;;;16.10;99.90;;;;;;5050555;28;20573;-62
2023/09/04 02:33:07;;;;;;;0.00;0.00;;;16.10;99.90;;;;;;5050179;28;20173;-62
2023/09/04 02:35:33;;;;;;;0.00;0.00;;;16.00;99.90;;;;;;5050677;28;20227;-62
2023/09/04 02:37:59;;;;;;;0.00;0.00;;;16.00;99.90;;;;;;5050441;28;20645;-62
2023/09/04 02:40:24;;;;;;;0.20;0.20;;;16.10;99.90;;;;;;5050584;28;20192;-61
2023/09/04 02:42:50;;;;;;;0.00;0.00;;;16.00;99.90;;;;;;5050453;28;20174;-61
2023/09/04 02:45:16;;;;;;;0.03;0.03;;;16.00;99.90;;;;;;5050432;28;20177;-62
2023/09/04 02:47:41;;;;;;;0.00;0.00;;;16.00;99.90;;;;;;5050359;28;20184;-62
2023/09/04 02:50:08;;;;;;;0.00;0.00;;;16.00;99.90;;;;;;5050317;28;20173;-61
2023/09/04 02:52:34;;;;;;;0.00;0.00;;;16.00;99.90;;;;;;5050526;28;20272;-61
2023/09/04 02:55:00;;;;;;;0.00;0.00;;;16.00;99.90;;;;;;5050304;28;20256;-61
2023/09/04 02:57:26;;;;;;;0.00;0.00;;;16.00;99.90;;;;;;5050178;28;20246;-61
2023/09/04 02:59:52;;;;;;;0.00;0.00;;;16.00;99.90;;;;;;5050534;28;20197;-61
2023/09/04 03:02:18;;;;;;;0.00;0.00;;;16.00;99.90;;;;;;5050221;28;20235;-61
2023/09/04 03:04:43;;;;;;;0.00;0.00;;;15.90;99.90;;;;;;5049644;28;20683;-61
2023/09/04 03:07:09;;;;;;;0.00;0.00;;;15.90;99.90;;;;;;5049786;28;20174;-61
2023/09/04 03:09:34;;;;;;;0.00;0.00;;;15.90;99.90;;;;;;5049848;28;20527;-61
2023/09/04 03:12:00;;;;;;;0.03;0.03;;;15.90;99.90;;;;;;5050052;28;20261;-62
2023/09/04 03:14:25;;;;;;;0.00;0.00;;;15.90;99.90;;;;;;5049766;28;20262;-62
2023/09/04 03:16:51;;;;;;;0.00;0.00;;;15.80;99.90;;;;;;5049157;28;20205;-61
2023/09/04 03:19:16;;;;;;;0.00;0.00;;;15.80;99.90;;;;;;5049758;28;20182;-61
2023/09/04 03:21:42;;;;;;;0.00;0.00;;;15.80;99.90;;;;;;5049317;28;20180;-62
2023/09/04 03:24:08;;;;;;;0.20;0.20;;;15.70;99.90;;;;;;5049950;28;20244;-61
2023/09/04 03:26:33;;;;;;;0.00;0.00;;;15.70;99.90;;;;;;5050717;28;20181;-62
2023/09/04 03:28:59;;;;;;;0.03;0.03;;;15.70;99.90;;;;;;5054113;28;20174;-62
2023/09/04 03:31:25;;;;;;;0.00;0.00;;;15.70;99.90;;;;;;5053652;28;20231;-61
2023/09/04 03:33:50;;;;;;;0.00;0.00;;;15.70;99.90;;;;;;5054175;28;20704;-61
2023/09/04 03:36:16;;;;;;;0.00;0.00;;;15.70;99.90;;;;;;5053657;28;20536;-60
2023/09/04 03:38:41;;;;;;;0.00;0.00;;;15.60;99.90;;;;;;5053471;28;20186;-61
2023/09/04 03:41:07;;;;;;;0.00;0.00;;;15.60;99.90;;;;;;5053671;28;20205;-61
2023/09/04 03:43:34;;;;;;;0.00;0.00;;;15.60;99.90;;;;;;5053748;28;20174;-60
2023/09/04 03:46:00;;;;;;;0.00;0.00;;;15.60;99.90;;;;;;5053801;28;20186;-60
2023/09/04 03:48:26;;;;;;;0.00;0.00;;;15.60;99.90;;;;;;5053465;28;20204;-61
2023/09/04 03:50:52;;;;;;;1.30;0.15;;;15.50;99.90;;;;;;5053324;28;20208;-60
2023/09/04 03:53:17;;;;;;;0.05;0.00;;;15.50;99.90;;;;;;5052680;28;20174;-60
2023/09/04 03:55:43;;;;;;;0.00;0.00;;;15.40;99.90;;;;;;5053379;28;20236;-59
2023/09/04 03:58:09;;;;;;;0.00;0.00;;;15.40;99.90;;;;;;5053365;28;20664;-58
2023/09/04 04:00:34;;;;;;;0.00;0.00;;;15.40;99.90;;;;;;5053336;28;20253;-59
2023/09/04 04:03:00;;;;;;;0.75;0.75;;;15.30;99.90;;;;;;5053100;28;20178;-59
2023/09/04 04:05:26;;;;;;;0.00;0.00;;;15.30;99.90;;;;;;5044232;28;20645;-60
2023/09/04 04:07:52;;;;;;;0.00;0.00;;;15.30;99.90;;;;;;5052365;28;20586;-59
2023/09/04 04:10:18;;;;;;;0.00;0.00;;;15.30;99.90;;;;;;5052705;28;20640;-59
2023/09/04 04:12:44;;;;;;;0.00;0.00;;;15.30;99.90;;;;;;5053254;28;20181;-59
2023/09/04 04:15:11;;;;;;;0.00;0.00;;;15.20;99.90;;;;;;5051672;28;20263;-59
2023/09/04 04:17:37;;;;;;;0.00;0.00;;;15.20;99.90;;;;;;5052389;28;20227;-60
2023/09/04 04:20:09;;;;;;;0.00;0.00;;;15.20;99.90;;;;;;5051973;28;20173;-60
2023/09/04 04:22:35;;;;;;;0.03;0.03;;;15.20;99.90;;;;;;5052710;28;20186;-60
2023/09/04 04:25:00;;;;;;;0.13;0.13;;;15.20;99.90;;;;;;5052736;28;20660;-60
2023/09/04 04:27:26;;;;;;;0.00;0.00;;;15.20;99.90;;;;;;5052882;28;20181;-60
2023/09/04 04:29:55;;;;;;;0.00;0.00;;;15.20;99.90;;;;;;5052550;28;20170;-60
2023/09/04 04:32:21;;;;;;;0.35;0.00;;;15.20;99.90;;;;;;5052932;28;20481;-60
2023/09/04 04:34:46;;;;;;;0.00;0.00;;;15.20;99.90;;;;;;5052631;28;20222;-60
2023/09/04 04:37:12;;;;;;;0.55;0.17;;;15.20;99.90;;;;;;5051929;28;20217;-60
2023/09/04 04:39:39;;;;;;;0.17;0.00;;;15.10;99.90;;;;;;5052649;28;20207;-60
2023/09/04 04:42:04;;;;;;;0.00;0.00;;;15.10;99.90;;;;;;5052622;28;20260;-60
2023/09/04 04:44:30;;;;;;;0.00;0.00;;;15.10;99.90;;;;;;5052653;28;20583;-60
2023/09/04 04:46:56;;;;;;;0.03;0.03;;;15.10;99.90;;;;;;5052825;28;20169;-60
2023/09/04 04:49:22;;;;;;;0.00;0.00;;;15.10;99.90;;;;;;5052573;28;20173;-60
2023/09/04 04:51:51;;;;;;;0.00;0.00;;;15.10;99.90;;;;;;5052462;28;20173;-60
2023/09/04 04:54:19;;;;;;;0.00;0.00;;;15.10;99.90;;;;;;5052374;28;20189;-60
2023/09/04 04:56:45;;;;;;;0.00;0.00;;;15.10;99.90;;;;;;5052475;28;20213;-60
2023/09/04 04:59:11;;;;;;;0.00;0.00;;;15.10;99.90;;;;;;5052410;28;20172;-60
2023/09/04 05:01:37;;;;;;;0.00;0.00;;;15.10;99.90;;;;;;5052296;28;20178;-60
2023/09/04 05:04:02;;;;;;;0.00;0.00;;;15.10;99.90;;;;;;5052372;28;20177;-60
2023/09/04 05:06:28;;;;;;;0.00;0.00;;;15.10;99.90;;;;;;5052223;28;20170;-60
2023/09/04 05:08:54;;;;;;;0.00;0.00;;;15.10;99.90;;;;;;5052262;28;20173;-60
2023/09/04 05:11:19;;;;;;;0.00;0.00;;;15.10;99.90;;;;;;5052198;28;20268;-60
2023/09/04 05:13:45;;;;;;;0.00;0.00;;;15.20;99.90;;;;;;5052095;28;20169;-60
2023/09/04 05:16:10;;;;;;;0.10;0.10;;;15.20;99.90;;;;;;5051807;28;20688;-60
2023/09/04 05:18:36;;;;;;;0.05;0.05;;;15.30;99.90;;;;;;5052011;28;20174;-60
2023/09/04 05:21:06;;;;;;;0.00;0.00;;;15.30;99.90;;;;;;5051896;28;20177;-60
2023/09/04 05:23:32;;;;;;;0.10;0.10;;;15.30;99.90;;;;;;5052043;28;20203;-60
2023/09/04 05:25:57;;;;;;;0.20;0.20;;;15.40;99.90;;;;;;5051817;28;20649;-60
2023/09/04 05:28:23;;;;;;;0.00;0.00;;;15.40;99.90;;;;;;5050600;28;20264;-60
2023/09/04 05:30:48;;;;;;;0.00;0.00;;;15.40;99.90;;;;;;5051659;28;20630;-60
2023/09/04 05:33:14;;;;;;;0.00;0.00;;;15.40;99.90;;;;;;5051584;28;20185;-60
2023/09/04 05:35:39;;;;;;;0.00;0.00;;;15.40;99.90;;;;;;5051647;28;20205;-60
2023/09/04 05:38:05;;;;;;;0.00;0.00;;;15.40;99.90;;;;;;5051541;28;20273;-60
2023/09/04 05:40:30;;;;;;;0.00;0.00;;;15.50;99.90;;;;;;5051480;28;20174;-60
2023/09/04 05:42:58;;;;;;;0.00;0.00;;;15.50;99.90;;;;;;5051762;28;20253;-60
2023/09/04 05:45:24;;;;;;;0.00;0.00;;;15.60;99.90;;;;;;5051338;28;20667;-60
2023/09/04 05:47:51;;;;;;;0.00;0.00;;;15.70;99.90;;;;;;5051664;28;20221;-60
2023/09/04 05:50:16;;;;;;;0.00;0.00;;;15.70;99.90;;;;;;5050708;28;20177;-60
2023/09/04 05:52:42;;;;;;;0.00;0.00;;;15.80;99.90;;;;;;5051483;28;20227;-60
2023/09/04 05:55:08;;;;;;;0.00;0.00;;;16.00;99.90;;;;;;5051203;28;20252;-60
2023/09/04 05:57:34;;;;;;;0.00;0.00;;;16.10;99.90;;;;;;5051425;28;20181;-60
2023/09/04 06:00:00;;;;;;;0.10;0.10;;;16.40;99.90;;;;;;5051216;28;20208;-60
2023/09/04 06:02:27;;;;;;;0.00;0.00;;;16.80;99.90;;;;;;5051279;28;20217;-60
2023/09/04 06:04:52;;;;;;;0.00;0.00;;;17.20;99.90;;;;;;5051397;28;20266;-60
2023/09/04 06:07:18;;;;;;;0.00;0.00;;;17.80;99.90;;;;;;5051026;28;20244;-60
2023/09/04 06:09:44;;;;;;;0.00;0.00;;;18.20;99.90;;;;;;5051298;28;20506;-60
2023/09/04 06:12:11;;;;;;;0.00;0.00;;;18.70;99.90;;;;;;5051168;28;20169;-60
2023/09/04 06:14:37;;;;;;;0.00;0.00;;;19.00;99.90;;;;;;5051071;28;20177;-60
2023/09/04 06:17:02;;;;;;;0.00;0.00;;;19.40;99.90;;;;;;5051015;28;20209;-60
2023/09/04 06:19:28;;;;;;;0.00;0.00;;;19.70;99.90;;;;;;5051188;28;20188;-60
2023/09/04 06:21:54;;;;;;;0.00;0.00;;;20.00;99.90;;;;;;5051147;28;20776;-60
2023/09/04 06:24:20;;;;;;;0.00;0.00;;;20.40;99.90;;;;;;5050855;28;20166;-60
2023/09/04 06:26:46;;;;;;;0.00;0.00;;;20.90;99.90;;;;;;5051118;28;20182;-60
2023/09/04 06:29:11;;;;;;;0.00;0.00;;;21.40;99.90;;;;;;5050958;28;20180;-60
2023/09/04 06:31:37;;;;;;;0.00;0.00;;;21.80;99.90;;;;;;5050668;28;20233;-60
2023/09/04 06:34:03;;;;;;;0.00;0.00;;;22.20;99.90;;;;;;5050971;28;20181;-60
2023/09/04 06:36:29;;;;;;;0.00;0.00;;;22.60;99.90;;;;;;5050980;28;20224;-60
2023/09/04 06:38:55;;;;;;;0.00;0.00;;;22.90;99.90;;;;;;5050882;28;20189;-60
2023/09/04 06:41:21;;;;;;;0.00;0.00;;;23.10;99.90;;;;;;5050652;28;20266;-60
2023/09/04 06:43:47;;;;;;;0.00;0.00;;;23.30;99.90;;;;;;5050855;28;20201;-60
2023/09/04 06:46:13;;;;;;;0.00;0.00;;;23.50;99.30;;;;;;5050714;28;20181;-60
2023/09/04 06:48:39;;;;;;;0.00;0.00;;;23.80;99.40;;;;;;5050887;28;20178;-60
2023/09/04 06:51:04;;;;;;;0.00;0.00;;;24.10;99.20;;;;;;5050782;28;20529;-60
2023/09/04 06:53:30;;;;;;;0.00;0.00;;;24.40;98.50;;;;;;5050604;28;20173;-60
2023/09/04 06:55:56;;;;;;;0.00;0.00;;;24.80;97.60;;;;;;5050568;28;20291;-59
2023/09/04 06:58:22;;;;;;;0.00;0.00;;;25.30;96.80;;;;;;5050633;28;20263;-60
2023/09/04 07:00:47;;;;;;;0.00;0.00;;;25.40;95.60;;;;;;5050754;28;20189;-59
2023/09/04 07:03:13;;;;;;;0.00;0.00;;;25.50;95.40;;;;;;5054688;28;20595;-60
2023/09/04 07:05:39;;;;;;;0.00;0.00;;;25.70;94.70;;;;;;5054674;28;20273;-60
2023/09/04 07:08:05;;;;;;;0.00;0.00;;;25.80;95.00;;;;;;5054746;28;20177;-60
2023/09/04 07:10:31;;;;;;;0.00;0.00;;;26.20;94.50;;;;;;5054576;28;20161;-60
2023/09/04 07:12:58;;;;;;;0.00;0.00;;;26.70;93.20;;;;;;5054497;28;20181;-60
2023/09/04 07:15:24;;;;;;;0.00;0.00;;;27.00;92.60;;;;;;5054388;28;20535;-60
2023/09/04 07:17:49;;;;;;;0.00;0.00;;;27.50;92.60;;;;;;5054408;28;20187;-60
2023/09/04 07:20:15;;;;;;;0.30;0.30;;;27.80;91.10;;;;;;5054443;28;20227;-60
2023/09/04 07:22:41;;;;;;;0.08;0.08;;;28.10;91.00;;;;;;5054351;28;20227;-60
2023/09/04 07:25:06;;;;;;;0.00;0.00;;;28.40;88.70;;;;;;5054194;28;20205;-60
2023/09/04 07:27:32;;;;;;;0.00;0.00;;;28.60;85.70;;;;;;5054358;28;20223;-60
2023/09/04 07:29:58;;;;;;;0.00;0.00;;;28.70;84.50;;;;;;5053908;28;20634;-60
2023/09/04 07:32:25;;;;;;;0.10;0.10;;;28.50;83.30;;;;;;5054253;28;20208;-60
2023/09/04 07:34:55;;;;;;;0.00;0.00;;;28.30;84.10;;;;;;5054294;28;20188;-60
2023/09/04 07:37:26;;;;;;;0.00;0.00;;;28.50;83.10;;;;;;5054044;28;20228;-60
2023/09/04 07:39:53;;;;;;;0.00;0.00;;;28.40;81.40;;;;;;5053967;28;20239;-60
2023/09/04 07:42:19;;;;;;;0.00;0.00;;;28.30;81.20;;;;;;5053761;28;20189;-60
2023/09/04 07:44:44;;;;;;;0.00;0.00;;;28.10;81.00;;;;;;5054066;28;20185;-60
2023/09/04 07:47:10;;;;;;;0.00;0.00;;;28.10;82.10;;;;;;5053973;28;20186;-60
2023/09/04 07:49:35;;;;;;;0.00;0.00;;;28.10;81.00;;;;;;5054002;28;20581;-60
2023/09/04 07:52:01;;;;;;;0.00;0.00;;;28.00;81.00;;;;;;5052623;28;20205;-60
2023/09/04 07:54:26;;;;;;;0.00;0.00;;;28.00;81.00;;;;;;5053603;28;20213;-60
2023/09/04 07:56:52;;;;;;;0.00;0.00;;;28.10;80.60;;;;;;5053769;28;20217;-60
2023/09/04 07:59:17;;;;;;;0.00;0.00;;;28.20;80.00;;;;;;5035685;28;20169;-60
2023/09/04 08:01:43;;;;;;;0.00;0.00;;;28.30;79.70;;;;;;5052421;28;20190;-60
2023/09/04 08:04:09;;;;;;;0.00;0.00;;;28.30;78.50;;;;;;5053615;28;20169;-60
2023/09/04 08:06:34;;;;;;;0.00;0.00;;;28.10;78.70;;;;;;5053588;28;20177;-60
2023/09/04 08:09:00;;;;;;;0.10;0.10;;;28.10;80.00;;;;;;5052198;28;20637;-60
2023/09/04 08:11:25;;;;;;;0.00;0.00;;;28.30;79.10;;;;;;5053453;28;20177;-60
2023/09/04 08:13:51;;;;;;;0.00;0.00;;;28.50;77.90;;;;;;5052694;28;20637;-60
2023/09/04 08:16:17;;;;;;;0.00;0.00;;;28.50;77.40;;;;;;5053126;28;20221;-61
2023/09/04 08:18:42;;;;;;;0.00;0.00;;;28.50;77.70;;;;;;5053343;28;20169;-61
2023/09/04 08:21:08;;;;;;;0.00;0.00;;;28.60;78.70;;;;;;5053285;28;20222;-61
2023/09/04 08:23:33;;;;;;;0.00;0.00;;;28.70;76.90;;;;;;5053329;28;20175;-61
2023/09/04 08:25:59;;;;;;;0.00;0.00;;;28.70;76.10;;;;;;5053013;28;20208;-60
2023/09/04 08:28:26;;;;;;;0.00;0.00;;;28.70;76.80;;;;;;5051991;28;20177;-61
2023/09/04 08:30:51;;;;;;;0.00;0.00;;;28.70;77.10;;;;;;5051690;28;20221;-61
2023/09/04 08:33:17;;;;;;;0.03;0.03;;;28.70;75.90;;;;;;5052893;28;20196;-60
2023/09/04 08:35:42;;;;;;;0.00;0.00;;;28.60;76.70;;;;;;5051664;28;20220;-60
2023/09/04 08:38:08;;;;;;;0.00;0.00;;;28.60;76.00;;;;;;5053032;28;20181;-61
2023/09/04 08:40:37;;;;;;;0.00;0.00;;;28.40;75.70;;;;;;5053023;28;20173;-61
2023/09/04 08:43:04;;;;;;;0.00;0.00;;;28.10;76.40;;;;;;5052834;28;20658;-61
2023/09/04 08:45:30;;;;;;;0.00;0.00;;;28.00;77.20;;;;;;5052893;28;20661;-61
2023/09/04 08:48:00;;;;;;;0.00;0.00;;;27.90;77.30;;;;;;5052811;28;20509;-61
2023/09/04 08:50:27;;;;;;;0.00;0.00;;;27.80;77.90;;;;;;5052762;28;20177;-61
2023/09/04 08:52:53;;;;;;;0.00;0.00;;;27.70;78.50;;;;;;5052755;28;20173;-61
2023/09/04 08:55:22;;;;;;;0.00;0.00;;;27.40;78.00;;;;;;5052268;28;20189;-61
2023/09/04 08:57:48;;;;;;;0.00;0.00;;;27.50;79.20;;;;;;5052668;28;20185;-61
2023/09/04 09:00:15;;;;;;;0.00;0.00;;;27.80;79.60;;;;;;5052641;28;20182;-61
2023/09/04 09:02:42;;;;;;;0.00;0.00;;;28.00;78.90;;;;;;5052506;28;20204;-61
2023/09/04 09:05:10;;;;;;;0.00;0.00;;;28.20;77.50;;;;;;5052389;28;20177;-61
2023/09/04 09:07:39;;;;;;;0.28;0.28;;;28.10;77.50;;;;;;5052355;28;20204;-60
2023/09/04 09:10:07;;;;;;;0.00;0.00;;;28.10;77.50;;;;;;5052348;28;20497;-61
2023/09/04 09:12:32;;;;;;;0.03;0.03;;;28.10;77.40;;;;;;5052470;28;20181;-61
2023/09/04 09:14:59;;;;;;;0.03;0.03;;;28.20;77.40;;;;;;5052117;28;20220;-60
2023/09/04 09:17:25;;;;;;;0.05;0.05;;;28.30;76.50;;;;;;5052025;28;20221;-61
2023/09/04 09:19:51;;;;;;;0.90;0.10;;;28.40;76.40;;;;;;5052166;28;20182;-61
2023/09/04 09:22:22;;;;;;;0.00;0.00;;;28.50;76.20;;;;;;5051938;28;20242;-61
2023/09/04 09:25:01;;;;;;;0.00;0.00;;;28.50;75.60;;;;;;5051152;28;20174;-60
2023/09/04 09:27:32;;;;;;;0.00;0.00;;;28.20;74.90;;;;;;5052139;28;20337;-60
2023/09/04 09:29:59;;;;;;;0.00;0.00;;;28.10;76.30;;;;;;5051680;28;20173;-60
2023/09/04 09:32:30;;;;;;;0.00;0.00;;;27.90;76.40;;;;;;5051943;28;20224;-60
2023/09/04 09:34:58;;;;;;;0.00;0.00;;;27.60;76.60;;;;;;5051847;28;20189;-60
2023/09/04 09:37:25;;;;;;;0.00;0.00;;;27.70;78.00;;;;;;5051853;28;20546;-60
2023/09/04 09:39:51;;;;;;;0.00;0.00;;;27.70;78.00;;;;;;5051805;28;20308;-60
2023/09/04 09:42:16;;;;;;;0.00;0.00;;;27.80;77.70;;;;;;5051556;28;20252;-60
2023/09/04 09:44:42;;;;;;;0.10;0.10;;;28.00;78.20;;;;;;5051685;28;20177;-60
2023/09/04 09:47:10;;;;;;;0.00;0.00;;;28.10;76.90;;;;;;5051594;28;20178;-61
2023/09/04 09:49:36;;;;;;;0.30;0.10;;;28.00;76.60;;;;;;5051726;28;20700;-60
2023/09/04 09:52:12;;;;;;;0.00;0.00;;;27.80;77.00;;;;;;5051552;28;20193;-60
2023/09/04 09:54:46;;;;;;;0.00;0.00;;;27.60;76.50;;;;;;5051361;28;20177;-60
2023/09/04 09:57:16;;;;;;;0.00;0.00;;;27.60;77.40;;;;;;5051261;28;20575;-60
2023/09/04 09:59:44;;;;;;;0.00;0.00;;;27.70;78.00;;;;;;5051332;28;20170;-61
2023/09/04 10:02:15;;;;;;;0.00;0.00;;;27.90;77.30;;;;;;5051338;28;20204;-61
2023/09/04 10:04:41;;;;;;;0.00;0.00;;;28.00;77.50;;;;;;5051412;28;20177;-60
2023/09/04 10:07:09;;;;;;;0.00;0.00;;;28.00;77.20;;;;;;5051300;28;20166;-61
2023/09/04 10:09:42;;;;;;;0.00;0.00;;;28.20;76.50;;;;;;5051361;28;20181;-60
2023/09/04 10:12:16;;;;;;;0.00;0.00;;;28.10;76.70;;;;;;5051257;28;20166;-61
2023/09/04 10:14:44;;;;;;;0.00;0.00;;;28.30;77.30;;;;;;5051359;28;20177;-61
2023/09/04 10:17:22;;;;;;;0.00;0.00;;;28.40;74.00;;;;;;5051101;28;20228;-61
2023/09/04 10:19:51;;;;;;;0.00;0.00;;;28.40;72.80;;;;;;5051319;28;20184;-60
2023/09/04 10:22:30;;;;;;;0.00;0.00;;;28.40;73.10;;;;;;5051131;28;20186;-61
2023/09/04 10:24:59;;;;;;;0.00;0.00;;;28.50;70.60;;;;;;5051387;28;20585;-61
2023/09/04 10:27:26;;;;;;;0.00;0.00;;;28.50;69.80;;;;;;5051057;28;20205;-61
2023/09/04 10:30:06;;;;;;;0.00;0.00;;;28.60;69.40;;;;;;5051034;28;20177;-60
2023/09/04 10:32:33;;;;;;;0.00;0.00;;;28.60;69.20;;;;;;5051126;28;20195;-61
2023/09/04 10:35:01;;;;;;;0.00;0.00;;;28.60;69.10;;;;;;5050893;28;20162;-60
2023/09/04 10:37:29;;;;;;;0.00;0.00;;;28.70;69.00;;;;;;5050776;28;20212;-61
2023/09/04 10:39:56;;;;;;;0.10;0.10;;;28.90;69.70;;;;;;5051103;28;20176;-61
2023/09/04 10:42:23;;;;;;;0.00;0.00;;;29.10;69.20;;;;;;5050816;28;20192;-61
2023/09/04 10:44:53;;;;;;;0.03;0.03;;;29.40;67.20;;;;;;5051008;28;20200;-60
2023/09/04 10:47:20;;;;;;;0.00;0.00;;;29.60;64.50;;;;;;5050717;28;20180;-60
2023/09/04 10:49:46;;;;;;;0.00;0.00;;;29.70;63.00;;;;;;5049598;28;20632;-60
2023/09/04 10:52:12;;;;;;;0.00;0.00;;;29.70;59.20;;;;;;5050860;28;20177;-61
2023/09/04 10:54:39;;;;;;;0.00;0.00;;;29.80;62.00;;;;;;5050741;28;20181;-61
2023/09/04 10:57:07;;;;;;;0.05;0.05;;;29.90;62.40;;;;;;5050778;28;20569;-60
2023/09/04 10:59:55;;;;;;;0.10;0.05;;;29.90;58.40;;;;;;5050781;28;20209;-60
2023/09/04 11:02:28;;;;;;;0.00;0.00;;;29.90;56.80;;;;;;5050429;28;20276;-61
2023/09/04 11:04:55;;;;;;;0.00;0.00;;;29.90;55.10;;;;;;5050729;28;20181;-60
2023/09/04 11:07:20;;;;;;;0.00;0.00;;;29.80;51.20;;;;;;5050532;28;20217;-61
2023/09/04 11:09:52;;;;;;;0.00;0.00;;;29.60;50.20;;;;;;5050704;28;20193;-61
2023/09/04 11:12:19;;;;;;;0.00;0.00;;;29.50;51.10;;;;;;5050606;28;20178;-60
2023/09/04 11:14:46;;;;;;;0.00;0.00;;;29.50;52.50;;;;;;5050739;28;20224;-61
2023/09/04 11:17:15;;;;;;;0.00;0.00;;;29.40;51.60;;;;;;5050547;28;20209;-60
2023/09/04 11:19:41;;;;;;;0.00;0.00;;;29.40;50.70;;;;;;5050595;28;20729;-61
2023/09/04 11:22:15;;;;;;;0.00;0.00;;;29.30;51.40;;;;;;5050586;28;20287;-60
2023/09/04 11:24:40;;;;;;;0.00;0.00;;;29.30;51.10;;;;;;5050704;28;20174;-60
2023/09/04 11:27:06;;;;;;;0.00;0.00;;;29.30;52.40;;;;;;5050538;28;20184;-60
2023/09/04 11:29:33;;;;;;;0.52;0.17;;;29.30;52.30;;;;;;5050594;28;20188;-60
2023/09/04 11:31:58;;;;;;;0.00;0.00;;;29.30;51.40;;;;;;5050273;28;20225;-61
2023/09/04 11:34:25;;;;;;;0.00;0.00;;;29.40;50.50;;;;;;5050508;28;20268;-60
2023/09/04 11:36:51;;;;;;;0.00;0.00;;;29.50;51.30;;;;;;5050489;28;20209;-61
2023/09/04 11:39:16;;;;;;;0.00;0.00;;;29.70;51.10;;;;;;5050438;28;20181;-60
2023/09/04 11:41:42;;;;;;;0.00;0.00;;;29.90;50.90;;;;;;5050412;28;20184;-60
2023/09/04 11:44:08;;;;;;;0.00;0.00;;;30.00;50.80;;;;;;5050443;28;20173;-60
2023/09/04 11:46:34;;;;;;;0.00;0.00;;;30.00;49.10;;;;;;5050411;28;20716;-61
2023/09/04 11:49:03;;;;;;;0.00;0.00;;;30.10;48.10;;;;;;5053092;28;20189;-60
2023/09/04 11:51:32;;;;;;;0.00;0.00;;;30.00;46.90;;;;;;5053928;28;20181;-61
2023/09/04 11:53:58;;;;;;;0.00;0.00;;;30.10;47.40;;;;;;5053662;28;20170;-60
2023/09/04 11:56:24;;;;;;;0.00;0.00;;;30.10;46.80;;;;;;5053774;28;20213;-61
2023/09/04 11:58:50;;;;;;;0.00;0.00;;;30.00;45.40;;;;;;5053277;28;20204;-60
2023/09/04 12:01:15;;;;;;;0.00;0.00;;;30.00;45.90;;;;;;5052924;28;20190;-60
2023/09/04 12:03:41;;;;;;;0.00;0.00;;;29.90;45.10;;;;;;5052635;28;20165;-60
2023/09/04 12:06:09;;;;;;;0.00;0.00;;;29.80;45.30;;;;;;5067441;28;20176;-60
2023/09/04 12:08:35;;;;;;;0.00;0.00;;;29.70;46.20;;;;;;5053542;28;20173;-61
2023/09/04 12:11:02;;;;;;;0.00;0.00;;;29.80;47.20;;;;;;5054549;28;20196;-60
2023/09/04 12:13:27;;;;;;;0.00;0.00;;;29.90;45.80;;;;;;5066265;28;20225;-62
2023/09/04 12:16:04;;;;;;;0.00;0.00;;;30.00;45.60;;;;;;5073474;28;20204;-60
2023/09/04 12:18:29;;;;;;;0.00;0.00;;;30.00;46.00;;;;;;5073527;28;20263;-60
2023/09/04 12:20:55;;;;;;;0.15;0.15;;;30.00;47.90;;;;;;5073434;28;20255;-59
2023/09/04 12:23:38;;;;;;;0.00;0.00;;;30.20;48.20;;;;;;5073130;28;20541;-60
2023/09/04 12:26:04;;;;;;;0.10;0.10;;;30.30;45.60;;;;;;5050716;28;20208;-61
2023/09/04 12:28:29;;;;;;;0.00;0.00;;;30.30;44.90;;;;;;5053430;28;20775;-60
2023/09/04 12:30:55;;;;;;;0.00;0.00;;;30.30;45.10;;;;;;5052940;28;20230;-60
2023/09/04 12:33:20;;;;;;;0.00;0.00;;;30.30;45.70;;;;;;5050580;28;20180;-61
2023/09/04 12:35:58;;;;;;;0.00;0.00;;;30.40;45.80;;;;;;5052743;28;20312;-63
2023/09/04 12:38:24;;;;;;;0.00;0.00;;;30.50;46.20;;;;;;5052651;28;20192;-60
2023/09/04 12:40:49;;;;;;;0.00;0.00;;;30.40;45.00;;;;;;5052600;28;20189;-60
2023/09/04 12:43:15;;;;;;;0.00;0.00;;;30.50;45.10;;;;;;5052044;28;20216;-60
2023/09/04 12:45:40;;;;;;;0.03;0.03;;;30.40;43.50;;;;;;5057525;28;20181;-61